createdAt,value
2017-11-21T00:02:00.506Z,91.36
2017-11-21T00:04:28.252Z,91.78
2017-11-21T00:06:56.012Z,92.31
2017-11-21T00:09:23.687Z,92.20
2017-11-21T00:11:52.324Z,91.83
2017-11-21T00:14:20.071Z,91.42
2017-11-21T00:16:47.830Z,91.36
2017-11-21T00:19:15.557Z,91.46
2017-11-21T00:21:43.292Z,91.22
2017-11-21T00:24:10.996Z,91.20
2017-11-21T00:26:38.747Z,91.15
2017-11-21T00:29:06.492Z,91.61
2017-11-21T00:31:34.201Z,91.50
2017-11-21T00:34:01.875Z,91.68
2017-11-21T00:36:29.622Z,91.58
2017-11-21T00:38:57.295Z,91.27
2017-11-21T00:41:25.165Z,91.43
2017-11-21T00:43:52.834Z,91.50
2017-11-21T00:46:20.580Z,91.29
2017-11-21T00:48:48.525Z,91.40
2017-11-21T00:51:16.264Z,91.28
2017-11-21T00:53:43.953Z,91.24
2017-11-21T00:56:11.688Z,91.42
2017-11-21T00:58:39.408Z,91.47
2017-11-21T01:01:07.155Z,92.00
2017-11-21T01:03:34.938Z,92.02
2017-11-21T01:06:02.617Z,92.29
2017-11-21T01:08:30.340Z,92.38
2017-11-21T01:10:58.035Z,92.00
2017-11-21T01:13:25.819Z,91.82
2017-11-21T01:15:53.509Z,92.28
2017-11-21T01:18:21.293Z,92.26
2017-11-21T01:20:49.058Z,92.32
2017-11-21T01:23:16.758Z,91.88
2017-11-21T01:25:44.954Z,91.83
2017-11-21T01:28:12.683Z,92.15
2017-11-21T01:30:40.449Z,91.92
2017-11-21T01:33:08.215Z,91.68
2017-11-21T01:35:35.919Z,91.77
2017-11-21T01:38:03.707Z,91.67
2017-11-21T01:40:31.425Z,92.06
2017-11-21T01:42:59.178Z,91.79
2017-11-21T01:45:26.939Z,91.34
2017-11-21T01:47:54.688Z,91.34
2017-11-21T01:50:22.419Z,91.97
2017-11-21T01:52:50.094Z,91.42
2017-11-21T01:55:17.826Z,91.63
2017-11-21T01:57:45.537Z,91.57
2017-11-21T02:00:13.217Z,91.79
2017-11-21T02:02:40.996Z,91.60
2017-11-21T02:05:08.680Z,91.68
2017-11-21T02:07:36.405Z,91.51
2017-11-21T02:10:04.133Z,91.43
2017-11-21T02:12:31.829Z,91.54
2017-11-21T02:14:59.641Z,92.00
2017-11-21T02:17:27.342Z,91.98
2017-11-21T02:19:55.137Z,91.89
2017-11-21T02:22:22.968Z,91.47
2017-11-21T02:24:50.734Z,91.65
2017-11-21T02:27:18.504Z,92.40
2017-11-21T02:29:46.308Z,92.44
2017-11-21T02:32:14.055Z,92.62
2017-11-21T02:34:41.773Z,92.36
2017-11-21T02:37:09.524Z,92.34
2017-11-21T02:39:37.192Z,92.11
2017-11-21T02:42:04.968Z,91.85
2017-11-21T02:44:32.895Z,91.75
2017-11-21T02:47:01.708Z,91.63
2017-11-21T02:49:29.474Z,91.67
2017-11-21T02:51:57.432Z,91.79
2017-11-21T02:54:25.176Z,91.79
2017-11-21T02:56:52.921Z,91.95
2017-11-21T02:59:20.659Z,91.92
2017-11-21T03:01:48.423Z,92.18
2017-11-21T03:04:16.077Z,92.95
2017-11-21T03:06:43.793Z,92.66
2017-11-21T03:09:11.549Z,92.68
2017-11-21T03:11:39.349Z,93.09
2017-11-21T03:14:07.105Z,92.64
2017-11-21T03:16:34.820Z,92.63
2017-11-21T03:19:02.599Z,92.85
2017-11-21T03:21:42.047Z,92.55
2017-11-21T03:24:21.453Z,92.42
2017-11-21T03:26:49.315Z,92.18
2017-11-21T03:29:17.186Z,92.25
2017-11-21T03:31:44.860Z,92.10
2017-11-21T03:34:12.557Z,92.02
2017-11-21T03:36:40.319Z,91.86
2017-11-21T03:39:08.053Z,92.22
2017-11-21T03:41:35.823Z,92.22
2017-11-21T03:44:03.540Z,92.09
2017-11-21T03:46:31.407Z,92.37
2017-11-21T03:48:59.196Z,92.27
2017-11-21T03:51:26.936Z,92.01
2017-11-21T03:53:54.605Z,92.71
2017-11-21T03:56:22.291Z,92.83
2017-11-21T03:58:50.060Z,92.93
2017-11-21T04:01:17.740Z,92.82
2017-11-21T04:03:45.460Z,92.77
2017-11-21T04:06:13.279Z,92.68
2017-11-21T04:08:41.026Z,92.77
2017-11-21T04:11:08.783Z,92.70
2017-11-21T04:13:36.694Z,92.83
2017-11-21T04:16:04.440Z,92.80
2017-11-21T04:18:32.111Z,92.47
2017-11-21T04:20:59.805Z,92.37
2017-11-21T04:23:27.569Z,92.34
2017-11-21T04:25:55.311Z,92.02
2017-11-21T04:28:23.033Z,91.96
2017-11-21T04:30:50.751Z,92.05
2017-11-21T04:33:18.529Z,91.94
2017-11-21T04:35:46.208Z,92.33
2017-11-21T04:38:13.981Z,92.48
2017-11-21T04:40:41.736Z,92.27
2017-11-21T04:43:09.431Z,92.24
2017-11-21T04:45:37.177Z,92.49
2017-11-21T04:48:04.932Z,92.42
2017-11-21T04:50:32.598Z,92.59
2017-11-21T04:53:00.334Z,92.47
2017-11-21T04:55:28.236Z,92.32
2017-11-21T04:57:55.932Z,92.09
2017-11-21T05:00:23.740Z,92.13
2017-11-21T05:02:51.604Z,92.24
2017-11-21T05:05:19.309Z,92.44
2017-11-21T05:07:47.002Z,92.22
2017-11-21T05:10:14.724Z,92.01
2017-11-21T05:12:42.414Z,92.17
2017-11-21T05:15:10.148Z,92.21
2017-11-21T05:17:37.842Z,92.15
2017-11-21T05:20:05.609Z,92.17
2017-11-21T05:22:33.412Z,92.49
2017-11-21T05:25:01.193Z,92.79
2017-11-21T05:27:28.947Z,92.47
2017-11-21T05:29:56.728Z,92.37
2017-11-21T05:35:30.442Z,92.66
2017-11-21T05:37:58.184Z,92.66
2017-11-21T05:40:25.952Z,92.44
2017-11-21T05:42:53.672Z,92.64
2017-11-21T05:45:21.399Z,92.68
2017-11-21T05:47:49.106Z,92.62
2017-11-21T05:50:17.795Z,92.50
2017-11-21T05:52:45.600Z,92.06
2017-11-21T05:55:13.306Z,92.47
2017-11-21T05:57:41.124Z,92.74
2017-11-21T06:00:08.894Z,92.73
2017-11-21T06:02:36.581Z,92.68
2017-11-21T06:05:04.312Z,92.94
2017-11-21T06:07:32.014Z,92.90
2017-11-21T06:09:59.765Z,92.98
2017-11-21T06:12:27.786Z,92.98
2017-11-21T06:14:55.464Z,92.92
2017-11-21T06:17:23.222Z,92.64
2017-11-21T06:19:50.964Z,92.60
2017-11-21T06:22:18.732Z,92.63
2017-11-21T06:24:46.469Z,92.54
2017-11-21T06:27:14.173Z,93.35
2017-11-21T06:29:42.193Z,93.40
2017-11-21T06:32:09.964Z,92.88
2017-11-21T06:34:37.679Z,92.50
2017-11-21T06:37:05.421Z,93.21
2017-11-21T06:39:33.098Z,93.41
2017-11-21T06:42:00.833Z,93.22
2017-11-21T06:44:28.522Z,92.66
2017-11-21T06:46:56.273Z,92.54
2017-11-21T06:49:23.992Z,92.69
2017-11-21T06:51:51.697Z,93.22
2017-11-21T06:54:19.435Z,93.72
2017-11-21T06:56:47.187Z,93.60
2017-11-21T06:59:14.927Z,92.94
2017-11-21T07:01:42.615Z,92.72
2017-11-21T07:04:10.340Z,92.68
2017-11-21T07:06:38.816Z,92.98
2017-11-21T07:09:06.586Z,93.06
2017-11-21T07:11:34.307Z,92.85
2017-11-21T07:14:02.099Z,92.67
2017-11-21T07:16:29.794Z,92.52
2017-11-21T07:18:57.563Z,93.21
2017-11-21T07:21:25.268Z,93.08
2017-11-21T07:23:53.005Z,92.74
2017-11-21T07:26:20.760Z,92.53
2017-11-21T07:28:48.491Z,92.69
2017-11-21T07:31:16.277Z,92.49
2017-11-21T07:33:43.983Z,92.22
2017-11-21T07:36:11.722Z,92.71
2017-11-21T07:38:39.372Z,91.80
2017-11-21T07:41:07.163Z,92.03
2017-11-21T07:43:34.865Z,91.92
2017-11-21T07:46:02.684Z,92.26
2017-11-21T07:48:30.450Z,92.37
2017-11-21T07:50:59.202Z,91.97
2017-11-21T07:53:27.001Z,91.77
2017-11-21T07:55:54.868Z,91.85
2017-11-21T07:58:22.616Z,91.78
2017-11-21T08:00:50.370Z,91.72
2017-11-21T08:03:18.093Z,91.73
2017-11-21T08:05:45.798Z,91.95
2017-11-21T08:08:13.548Z,91.78
2017-11-21T08:10:41.339Z,91.77
2017-11-21T08:13:09.127Z,92.07
2017-11-21T08:15:36.901Z,91.17
2017-11-21T08:18:04.654Z,90.21
2017-11-21T08:20:32.389Z,90.17
2017-11-21T08:23:00.112Z,90.81
2017-11-21T08:25:27.846Z,92.13
2017-11-21T08:27:55.572Z,91.03
2017-11-21T08:30:23.373Z,90.57
2017-11-21T08:32:51.050Z,91.19
2017-11-21T08:35:18.769Z,91.29
2017-11-21T08:37:46.518Z,91.21
2017-11-21T08:40:14.290Z,90.56
2017-11-21T08:42:41.987Z,90.72
2017-11-21T08:45:09.715Z,92.10
2017-11-21T08:47:37.773Z,92.20
2017-11-21T08:50:05.487Z,91.95
2017-11-21T08:52:33.236Z,91.91
2017-11-21T08:55:01.045Z,92.61
2017-11-21T08:57:28.795Z,92.48
2017-11-21T08:59:56.605Z,92.92
2017-11-21T09:02:24.329Z,92.62
2017-11-21T09:04:52.818Z,91.25
2017-11-21T09:07:20.658Z,90.49
2017-11-21T09:09:48.406Z,90.24
2017-11-21T09:12:16.187Z,90.38
2017-11-21T09:14:43.874Z,91.11
2017-11-21T09:17:11.600Z,90.14
2017-11-21T09:19:39.320Z,89.49
2017-11-21T09:22:07.047Z,89.10
2017-11-21T09:24:34.735Z,88.97
2017-11-21T09:27:03.699Z,88.99
2017-11-21T09:29:31.548Z,89.12
2017-11-21T09:31:59.232Z,88.98
2017-11-21T09:34:26.936Z,89.39
2017-11-21T09:36:54.683Z,89.48
2017-11-21T09:39:22.441Z,88.73
2017-11-21T09:41:50.249Z,88.20
2017-11-21T09:44:18.004Z,88.82
2017-11-21T09:46:45.724Z,89.41
2017-11-21T09:49:13.452Z,90.71
2017-11-21T09:51:41.147Z,89.57
2017-11-21T09:54:08.912Z,89.24
2017-11-21T09:56:36.713Z,89.05
2017-11-21T09:59:04.411Z,88.81
2017-11-21T10:01:32.118Z,89.15
2017-11-21T10:03:59.783Z,88.86
2017-11-21T10:06:27.545Z,88.90
2017-11-21T10:08:55.246Z,88.45
2017-11-21T10:11:22.963Z,88.13
2017-11-21T10:13:50.720Z,88.14
2017-11-21T10:16:18.499Z,88.11
2017-11-21T10:18:46.266Z,87.91
2017-11-21T10:21:13.982Z,87.21
2017-11-21T10:23:41.734Z,87.14
2017-11-21T10:26:09.514Z,87.54
2017-11-21T10:28:37.309Z,88.24
2017-11-21T10:31:05.132Z,87.47
2017-11-21T10:33:32.908Z,87.74
2017-11-21T10:36:00.592Z,88.25
2017-11-21T10:38:28.386Z,87.47
2017-11-21T10:40:56.100Z,87.00
2017-11-21T10:43:23.849Z,87.01
2017-11-21T10:45:51.676Z,87.25
2017-11-21T10:48:19.380Z,87.29
2017-11-21T10:50:47.117Z,86.74
2017-11-21T10:53:14.869Z,87.07
2017-11-21T10:55:42.631Z,86.32
2017-11-21T10:58:10.361Z,86.42
2017-11-21T11:00:38.146Z,86.83
2017-11-21T11:03:05.915Z,86.24
2017-11-21T11:05:33.747Z,86.31
2017-11-21T11:08:01.533Z,85.70
2017-11-21T11:10:29.707Z,84.95
2017-11-21T11:12:57.487Z,85.05
2017-11-21T11:15:25.207Z,86.57
2017-11-21T11:17:53.005Z,86.09
2017-11-21T11:20:20.785Z,86.63
2017-11-21T11:22:48.600Z,87.74
2017-11-21T11:25:16.652Z,88.13
2017-11-21T11:27:44.506Z,88.65
2017-11-21T11:30:12.818Z,88.36
2017-11-21T11:32:40.599Z,88.18
2017-11-21T11:35:08.360Z,87.71
2017-11-21T11:37:36.220Z,88.02
2017-11-21T11:40:04.031Z,87.26
2017-11-21T11:42:31.825Z,86.96
2017-11-21T11:44:59.577Z,87.06
2017-11-21T11:47:27.625Z,87.11
2017-11-21T11:49:55.490Z,87.27
2017-11-21T11:52:23.261Z,86.15
2017-11-21T11:54:51.100Z,85.92
2017-11-21T11:57:18.874Z,85.87
2017-11-21T11:59:46.692Z,87.04
2017-11-21T12:02:14.743Z,86.63
2017-11-21T12:04:42.582Z,85.92
2017-11-21T12:07:10.398Z,85.75
2017-11-21T12:09:38.259Z,86.54
2017-11-21T12:12:06.172Z,86.82
2017-11-21T12:14:34.025Z,86.86
2017-11-21T12:17:01.935Z,87.03
2017-11-21T12:19:29.736Z,86.69
2017-11-21T12:21:57.497Z,87.72
2017-11-21T12:24:25.397Z,86.76
2017-11-21T12:26:53.295Z,87.05
2017-11-21T12:29:21.189Z,87.66
2017-11-21T12:31:49.028Z,87.31
2017-11-21T12:34:16.898Z,87.71
2017-11-21T12:36:44.772Z,88.21
2017-11-21T12:39:12.638Z,88.34
2017-11-21T12:41:40.424Z,88.42
2017-11-21T12:44:08.267Z,88.23
2017-11-21T12:46:36.025Z,87.48
2017-11-21T12:49:03.804Z,87.48
2017-11-21T12:51:31.575Z,88.23
2017-11-21T12:53:59.394Z,87.83
2017-11-21T12:56:27.413Z,87.97
2017-11-21T12:58:55.334Z,87.78
2017-11-21T13:01:23.231Z,88.20
2017-11-21T13:03:51.190Z,88.46
2017-11-21T13:06:19.039Z,89.41
2017-11-21T13:08:47.896Z,89.62
2017-11-21T13:11:16.033Z,90.28
2017-11-21T13:13:43.839Z,90.10
2017-11-21T13:16:11.840Z,90.15
2017-11-21T13:18:39.734Z,90.45
2017-11-21T13:21:08.144Z,89.98
2017-11-21T13:23:36.034Z,90.79
2017-11-21T13:26:03.819Z,91.03
2017-11-21T13:28:31.718Z,89.85
2017-11-21T13:30:59.646Z,89.41
2017-11-21T13:33:27.458Z,90.41
2017-11-21T13:35:55.318Z,90.62
2017-11-21T13:38:23.231Z,90.28
2017-11-21T13:40:51.053Z,89.45
2017-11-21T13:43:18.859Z,90.54
2017-11-21T13:45:46.658Z,90.16
2017-11-21T13:48:14.474Z,91.27
2017-11-21T13:50:42.396Z,90.89
2017-11-21T13:53:10.214Z,91.01
2017-11-21T13:55:38.159Z,90.59
2017-11-21T13:58:06.019Z,90.42
2017-11-21T14:00:33.808Z,90.92
2017-11-21T14:03:02.466Z,91.34
2017-11-21T14:05:30.262Z,90.89
2017-11-21T14:07:58.072Z,90.42
2017-11-21T14:10:25.940Z,90.35
2017-11-21T14:12:53.719Z,90.07
2017-11-21T14:15:21.637Z,89.96
2017-11-21T14:17:49.614Z,90.52
2017-11-21T14:20:17.562Z,90.35
2017-11-21T14:22:45.434Z,90.57
2017-11-21T14:25:13.309Z,90.50
2017-11-21T14:27:41.252Z,90.37
2017-11-21T14:30:09.071Z,90.36
2017-11-21T14:32:36.974Z,90.66
2017-11-21T14:35:04.830Z,91.33
2017-11-21T14:37:32.658Z,90.65
2017-11-21T14:40:00.432Z,90.78
2017-11-21T14:42:28.176Z,91.01
2017-11-21T14:44:55.925Z,91.03
2017-11-21T14:47:23.717Z,91.37
2017-11-21T14:49:51.552Z,91.63
2017-11-21T14:52:19.341Z,91.77
2017-11-21T14:54:47.163Z,91.91
2017-11-21T14:57:14.927Z,91.92
2017-11-21T14:59:42.703Z,92.22
2017-11-21T15:02:10.483Z,91.96
2017-11-21T15:04:38.268Z,91.60
2017-11-21T15:07:06.154Z,91.89
2017-11-21T15:09:34.061Z,92.06
2017-11-21T15:12:01.834Z,92.09
2017-11-21T15:14:30.107Z,92.00
2017-11-21T15:16:57.969Z,91.66
2017-11-21T15:19:25.741Z,91.94
2017-11-21T15:21:53.627Z,92.19
2017-11-21T15:24:22.165Z,91.90
2017-11-21T15:26:49.967Z,91.89
2017-11-21T15:29:18.812Z,92.00
2017-11-21T15:31:46.945Z,91.82
2017-11-21T15:34:14.718Z,91.71
2017-11-21T15:36:42.577Z,91.62
2017-11-21T15:39:10.310Z,91.59
2017-11-21T15:41:38.114Z,91.48
2017-11-21T15:44:05.952Z,91.40
2017-11-21T15:46:33.698Z,91.55
2017-11-21T15:49:01.439Z,91.83
2017-11-21T15:51:29.257Z,92.16
2017-11-21T15:53:57.083Z,92.64
2017-11-21T15:56:24.867Z,92.37
2017-11-21T15:58:52.669Z,92.30
2017-11-21T16:01:20.542Z,92.39
2017-11-21T16:03:48.385Z,92.05
2017-11-21T16:06:16.193Z,92.30
2017-11-21T16:08:44.022Z,92.31
2017-11-21T16:11:11.893Z,92.11
2017-11-21T16:13:39.661Z,92.17
2017-11-21T16:16:07.702Z,92.02
2017-11-21T16:18:36.688Z,91.91
2017-11-21T16:21:04.529Z,91.90
2017-11-21T16:23:32.277Z,91.57
2017-11-21T16:26:00.076Z,91.65
2017-11-21T16:28:28.768Z,91.80
2017-11-21T16:30:56.589Z,91.77
2017-11-21T16:33:24.322Z,92.27
2017-11-21T16:35:52.067Z,92.73
2017-11-21T16:38:19.906Z,92.12
2017-11-21T16:40:47.628Z,92.02
2017-11-21T16:43:15.502Z,92.33
2017-11-21T16:45:43.243Z,93.31
2017-11-21T16:48:11.001Z,93.18
2017-11-21T16:50:38.863Z,92.67
2017-11-21T16:53:06.660Z,92.33
2017-11-21T16:55:34.586Z,92.48
2017-11-21T16:58:02.367Z,92.56
2017-11-21T17:00:30.174Z,92.77
2017-11-21T17:02:58.980Z,92.62
2017-11-21T17:05:27.015Z,92.97
2017-11-21T17:07:55.994Z,92.94
2017-11-21T17:10:23.784Z,92.87
2017-11-21T17:12:51.578Z,92.99
2017-11-21T17:15:19.710Z,93.07
2017-11-21T17:17:47.607Z,93.26
2017-11-21T17:20:15.525Z,93.29
2017-11-21T17:22:43.376Z,92.91
2017-11-21T17:25:11.215Z,92.87
2017-11-21T17:27:40.042Z,93.15
2017-11-21T17:30:08.047Z,93.33
2017-11-21T17:32:35.849Z,93.34
2017-11-21T17:35:03.582Z,93.33
2017-11-21T17:37:31.381Z,93.05
2017-11-21T17:40:02.220Z,93.42
2017-11-21T17:42:30.072Z,92.76
2017-11-21T17:44:58.702Z,92.43
2017-11-21T17:47:27.220Z,92.42
2017-11-21T17:49:55.006Z,92.88
2017-11-21T17:52:22.769Z,92.97
2017-11-21T17:54:50.571Z,92.61
2017-11-21T17:57:18.429Z,93.12
2017-11-21T17:59:46.787Z,93.44
2017-11-21T18:02:14.662Z,93.86
2017-11-21T18:04:42.492Z,94.33
2017-11-21T18:07:11.363Z,93.42
2017-11-21T18:09:40.146Z,93.56
2017-11-21T18:12:07.981Z,93.56
2017-11-21T18:14:35.794Z,93.79
2017-11-21T18:17:03.652Z,93.02
2017-11-21T18:19:31.457Z,92.90
2017-11-21T18:21:59.304Z,92.93
2017-11-21T18:24:27.056Z,93.67
2017-11-21T18:26:54.827Z,95.08
2017-11-21T18:29:22.708Z,94.34
2017-11-21T18:31:50.577Z,93.85
2017-11-21T18:34:18.416Z,93.48
2017-11-21T18:36:46.156Z,93.26
2017-11-21T18:39:13.861Z,93.33
2017-11-21T18:41:41.756Z,93.19
2017-11-21T18:44:09.540Z,93.55
2017-11-21T18:46:37.872Z,93.67
2017-11-21T18:49:07.680Z,93.61
2017-11-21T18:51:35.726Z,93.39
2017-11-21T18:54:03.740Z,93.05
2017-11-21T18:56:31.634Z,93.08
2017-11-21T18:58:59.525Z,93.58
2017-11-21T19:01:27.330Z,93.56
2017-11-21T19:03:55.352Z,93.34
2017-11-21T19:06:23.179Z,93.62
2017-11-21T19:08:51.780Z,93.95
2017-11-21T19:11:19.801Z,94.34
2017-11-21T19:13:47.657Z,94.35
2017-11-21T19:16:16.402Z,93.96
2017-11-21T19:18:44.147Z,94.38
2017-11-21T19:21:12.096Z,94.83
2017-11-21T19:23:41.071Z,94.89
2017-11-21T19:26:09.406Z,94.88
2017-11-21T19:28:37.135Z,94.09
2017-11-21T19:31:04.959Z,93.82
2017-11-21T19:33:32.960Z,94.02
2017-11-21T19:36:03.482Z,94.38
2017-11-21T19:38:31.385Z,94.20
2017-11-21T19:40:59.253Z,93.94
2017-11-21T19:43:26.956Z,93.77
2017-11-21T19:45:55.047Z,93.92
2017-11-21T19:48:23.437Z,94.14
2017-11-21T19:50:51.391Z,94.08
2017-11-21T19:53:19.499Z,94.13
2017-11-21T19:55:47.421Z,93.71
2017-11-21T19:58:15.666Z,93.50
2017-11-21T20:00:43.608Z,93.79
2017-11-21T20:03:11.566Z,93.93
2017-11-21T20:05:39.641Z,94.34
2017-11-21T20:08:08.350Z,94.01
2017-11-21T20:10:36.227Z,93.61
2017-11-21T20:13:04.738Z,93.44
2017-11-21T20:15:32.509Z,93.56
2017-11-21T20:18:00.273Z,93.78
2017-11-21T20:20:28.259Z,93.53
2017-11-21T20:22:56.269Z,93.33
2017-11-21T20:25:25.938Z,93.45
2017-11-21T20:27:55.615Z,93.65
2017-11-21T20:30:24.821Z,93.67
2017-11-21T20:32:52.774Z,93.51
2017-11-21T20:35:20.541Z,93.98
2017-11-21T20:37:48.389Z,93.89
2017-11-21T20:40:16.182Z,93.88
2017-11-21T20:42:43.957Z,93.88
2017-11-21T20:45:12.141Z,93.63
2017-11-21T20:47:41.181Z,93.35
2017-11-21T20:50:09.034Z,92.71
2017-11-21T20:52:36.762Z,92.45
2017-11-21T20:55:04.621Z,92.92
2017-11-21T20:57:32.541Z,93.07
2017-11-21T21:00:00.417Z,93.48
2017-11-21T21:02:28.282Z,94.07
2017-11-21T21:04:56.037Z,94.14
2017-11-21T21:07:23.825Z,94.48
2017-11-21T21:09:51.586Z,94.07
2017-11-21T21:12:19.324Z,93.27
2017-11-21T21:14:47.206Z,93.10
2017-11-21T21:17:15.108Z,93.09
2017-11-21T21:19:44.992Z,93.18
2017-11-21T21:22:12.785Z,93.20
2017-11-21T21:24:40.550Z,93.29
2017-11-21T21:30:08.483Z,93.20
2017-11-21T21:32:36.212Z,93.11
2017-11-21T21:35:03.908Z,93.56
2017-11-21T21:37:31.567Z,93.84
2017-11-21T21:39:59.304Z,93.94
2017-11-21T21:42:27.002Z,93.65
2017-11-21T21:44:54.677Z,93.40
2017-11-21T21:47:22.432Z,93.31
2017-11-21T21:49:50.135Z,93.51
2017-11-21T21:52:17.935Z,93.49
2017-11-21T21:54:45.779Z,93.18
2017-11-21T21:57:13.683Z,93.04
2017-11-21T21:59:41.388Z,93.44
2017-11-21T22:02:09.078Z,93.91
2017-11-21T22:04:36.832Z,93.83
2017-11-21T22:07:04.581Z,93.57
2017-11-21T22:09:33.384Z,93.83
2017-11-21T22:12:01.255Z,93.60
2017-11-21T22:14:28.963Z,93.59
2017-11-21T22:16:56.712Z,93.91
2017-11-21T22:19:24.444Z,94.16
2017-11-21T22:21:52.172Z,94.22
2017-11-21T22:24:19.949Z,94.33
2017-11-21T22:26:47.679Z,94.28
2017-11-21T22:29:15.414Z,94.15
2017-11-21T22:31:43.162Z,94.24
2017-11-21T22:34:10.873Z,94.42
2017-11-21T22:36:38.631Z,94.31
2017-11-21T22:39:06.329Z,94.20
2017-11-21T22:41:34.143Z,94.24
2017-11-21T22:44:01.860Z,94.13
2017-11-21T22:46:29.570Z,94.08
2017-11-21T22:48:57.397Z,93.95
2017-11-21T22:51:25.146Z,93.90
2017-11-21T22:53:52.987Z,94.47
2017-11-21T22:56:20.855Z,94.63
2017-11-21T22:58:48.611Z,94.64
2017-11-21T23:01:16.420Z,94.28
2017-11-21T23:03:44.185Z,94.03
2017-11-21T23:06:11.894Z,94.32
2017-11-21T23:08:39.631Z,94.64
2017-11-21T23:11:07.307Z,94.83
2017-11-21T23:13:35.010Z,95.24
2017-11-21T23:16:02.973Z,95.18
2017-11-21T23:18:30.673Z,94.86
2017-11-21T23:20:58.352Z,94.49
2017-11-21T23:23:26.090Z,94.66
2017-11-21T23:25:53.813Z,94.58
2017-11-21T23:28:21.541Z,94.47
2017-11-21T23:30:49.316Z,94.82
2017-11-21T23:33:17.060Z,94.78
2017-11-21T23:35:44.892Z,94.74
2017-11-21T23:38:12.597Z,94.71
2017-11-21T23:40:40.301Z,94.80
2017-11-21T23:43:08.078Z,94.47
2017-11-21T23:45:35.830Z,94.60
2017-11-21T23:48:03.609Z,95.39
2017-11-21T23:50:31.343Z,95.64
2017-11-21T23:52:59.102Z,95.70
2017-11-21T23:55:26.786Z,95.63
2017-11-21T23:57:55.647Z,95.12
